Time;durP1;ratioP1;P1;durP2;ratioP2;P2;SDS_P1;SDS_P2;PMS_P1;PMS_P2;Temp;Humidity;BMP_temperature;BMP_pressure;BME280_temperature;BME280_humidity;BME280_pressure;Samples;Min_cycle;Max_cycle;Signal;HPM_P1;HPM_P2
2022/08/23 00:00:04;;;;;;;2.70;2.50;;;26.30;47.10;;;;;;6060942;23;20466;-85
2022/08/23 00:03:04;;;;;;;2.63;2.43;;;26.30;47.10;;;;;;6035765;23;20383;-85
2022/08/23 00:05:47;;;;;;;2.67;2.47;;;26.30;47.10;;;;;;6060678;23;20427;-86
2022/08/23 00:08:23;;;;;;;2.60;2.40;;;26.30;47.10;;;;;;6060532;23;20393;-85
2022/08/23 00:10:54;;;;;;;2.73;2.53;;;26.30;47.20;;;;;;6060378;23;20863;-85
2022/08/23 00:13:34;;;;;;;3.10;2.80;;;26.30;47.20;;;;;;6059991;23;20374;-85
2022/08/23 00:16:10;;;;;;;2.80;2.60;;;26.30;47.20;;;;;;6060701;23;20651;-86
2022/08/23 00:18:51;;;;;;;2.80;2.60;;;26.30;47.20;;;;;;6060397;23;20382;-86
2022/08/23 00:21:37;;;;;;;3.33;2.73;;;26.30;47.20;;;;;;6054711;23;20391;-84
2022/08/23 00:24:12;;;;;;;2.53;2.33;;;26.30;47.20;;;;;;6059620;23;20422;-86
2022/08/23 00:27:04;;;;;;;3.07;2.77;;;26.30;47.20;;;;;;6036641;23;20839;-85
2022/08/23 00:30:04;;;;;;;;;;;;;;;;;;;;;
2022/08/23 00:32:39;;;;;;;2.67;2.47;;;26.30;47.70;;;;;;6083537;23;20401;-86
2022/08/23 00:38:08;;;;;;;2.60;2.33;;;26.20;47.10;;;;;;6111833;23;20370;-84
2022/08/23 00:40:42;;;;;;;2.77;2.57;;;26.20;47.20;;;;;;6092987;23;20384;-83
2022/08/23 00:49:14;;;;;;;2.97;2.60;;;26.20;47.10;;;;;;6143259;23;20348;-84
2022/08/23 00:52:07;;;;;;;5.13;3.17;;;26.20;47.10;;;;;;6140532;23;20380;-84
2022/08/23 00:54:44;;;;;;;2.77;2.50;;;26.20;47.10;;;;;;6117206;23;20405;-84
2022/08/23 00:57:26;;;;;;;2.60;2.40;;;26.20;47.20;;;;;;6118718;23;20357;-84
2022/08/23 00:59:54;;;;;;;2.97;2.67;;;26.20;47.10;;;;;;6116641;23;20374;-84
2022/08/23 01:09:00;;;;;;;3.03;2.80;;;26.20;47.10;;;;;;6146135;23;20384;-84
2022/08/23 01:15:00;;;;;;;2.87;2.67;;;26.20;47.20;;;;;;6171578;23;20416;-84
2022/08/23 01:18:08;;;;;;;2.80;2.60;;;26.20;47.20;;;;;;6145378;23;20379;-84
2022/08/23 01:20:54;;;;;;;3.17;2.87;;;26.20;47.20;;;;;;6171037;23;20379;-84
2022/08/23 01:26:33;;;;;;;;;;;;;;;;;;;;;
2022/08/23 01:29:11;;;;;;;3.30;3.00;;;26.10;47.10;;;;;;6149546;23;20353;-84
2022/08/23 01:31:43;;;;;;;3.67;2.90;;;26.20;47.20;;;;;;6145418;23;20404;-84
2022/08/23 01:34:16;;;;;;;3.00;2.70;;;26.10;47.10;;;;;;6146412;23;20380;-84
2022/08/23 01:36:56;;;;;;;2.47;2.27;;;26.20;47.10;;;;;;6145644;23;20388;-84
2022/08/23 01:39:48;;;;;;;2.80;2.60;;;26.20;47.10;;;;;;6124383;23;20684;-84
2022/08/23 01:49:06;;;;;;;2.90;2.60;;;26.10;47.10;;;;;;6172378;23;20849;-84
2022/08/23 01:51:38;;;;;;;3.67;3.23;;;26.10;47.20;;;;;;6146554;23;20376;-84
2022/08/23 01:54:17;;;;;;;2.80;2.50;;;26.10;47.20;;;;;;6146751;23;20388;-84
2022/08/23 01:56:48;;;;;;;2.90;2.70;;;26.10;47.20;;;;;;6145819;23;20404;-84
2022/08/23 01:59:19;;;;;;;3.60;2.97;;;26.10;47.20;;;;;;6145730;23;20372;-84
2022/08/23 02:02:18;;;;;;;4.90;3.57;;;26.10;47.20;;;;;;6146551;23;20388;-84
2022/08/23 02:04:53;;;;;;;3.40;2.97;;;26.10;47.20;;;;;;6171014;23;20421;-83
2022/08/23 02:07:38;;;;;;;;;;;;;;;;;;;;;
2022/08/23 02:10:12;;;;;;;2.83;2.63;;;26.10;47.20;;;;;;6171234;23;20793;-83
2022/08/23 02:13:21;;;;;;;;;;;;;;;;;;;;;
2022/08/23 02:15:55;;;;;;;2.90;2.60;;;26.10;47.10;;;;;;6173138;23;20460;-83
2022/08/23 02:18:26;;;;;;;3.17;2.87;;;26.10;47.20;;;;;;6148287;23;20467;-83
2022/08/23 02:24:02;;;;;;;;;;;;;;;;;;;;;
2022/08/23 02:26:45;;;;;;;;;;;;;;;;;;;;;
2022/08/23 02:29:16;;;;;;;3.00;2.47;;;26.10;47.10;;;;;;6173737;23;20431;-84
2022/08/23 02:31:44;;;;;;;2.90;2.67;;;26.10;47.10;;;;;;6147533;23;20383;-83
2022/08/23 02:34:37;;;;;;;;;;;;;;;;;;;;;
2022/08/23 02:37:10;;;;;;;3.37;3.07;;;26.10;47.10;;;;;;6176221;23;20368;-85
2022/08/23 02:39:47;;;;;;;2.77;2.57;;;26.10;47.10;;;;;;6150161;23;20384;-85
2022/08/23 02:42:25;;;;;;;2.60;2.40;;;26.10;47.10;;;;;;6149863;23;20387;-85
2022/08/23 02:45:23;;;;;;;2.80;2.60;;;26.10;47.10;;;;;;6175439;23;20423;-85
2022/08/23 02:48:13;;;;;;;2.80;2.60;;;26.10;47.10;;;;;;6151236;23;20411;-85
2022/08/23 02:50:42;;;;;;;3.47;2.87;;;26.10;47.20;;;;;;6150999;23;20386;-85
2022/08/23 02:53:18;;;;;;;3.07;2.60;;;26.10;47.20;;;;;;6151698;23;20407;-85
2022/08/23 02:56:18;;;;;;;3.70;3.07;;;26.10;47.20;;;;;;6176949;23;20559;-85
2022/08/23 02:58:59;;;;;;;2.90;2.70;;;26.00;47.10;;;;;;6175499;23;20380;-85
2022/08/23 03:01:32;;;;;;;2.83;2.63;;;26.00;47.10;;;;;;6150931;23;20398;-85
2022/08/23 03:04:07;;;;;;;2.83;2.53;;;26.10;47.20;;;;;;6150657;23;20452;-85
2022/08/23 03:06:46;;;;;;;3.23;3.03;;;26.10;47.20;;;;;;6150018;23;20378;-85
2022/08/23 03:09:24;;;;;;;3.20;2.90;;;26.00;47.10;;;;;;6176373;23;20438;-85
2022/08/23 03:11:55;;;;;;;2.80;2.30;;;26.10;47.20;;;;;;6149845;23;20379;-85
2022/08/23 03:14:24;;;;;;;4.27;2.80;;;26.10;47.10;;;;;;6150746;23;20431;-85
2022/08/23 03:16:53;;;;;;;3.00;2.80;;;26.00;47.10;;;;;;6150879;23;20376;-85
2022/08/23 03:19:24;;;;;;;4.70;3.10;;;26.00;47.10;;;;;;6176048;23;20404;-85
2022/08/23 03:22:07;;;;;;;2.93;2.63;;;26.00;47.10;;;;;;6150672;23;20407;-85
2022/08/23 03:24:44;;;;;;;2.67;2.47;;;26.10;47.10;;;;;;6149601;23;20416;-85
2022/08/23 03:27:26;;;;;;;2.63;2.43;;;26.00;47.00;;;;;;6176226;23;20356;-85
2022/08/23 03:30:04;;;;;;;2.97;2.67;;;26.00;47.00;;;;;;6149974;23;20466;-85
2022/08/23 03:32:37;;;;;;;3.10;2.70;;;26.00;47.10;;;;;;6145250;23;20431;-85
2022/08/23 03:35:09;;;;;;;3.13;2.87;;;26.00;47.10;;;;;;6175073;23;20419;-84
2022/08/23 03:37:45;;;;;;;2.40;2.20;;;26.00;47.00;;;;;;6172307;23;20448;-85
2022/08/23 03:40:15;;;;;;;2.50;2.30;;;26.00;47.10;;;;;;6126428;23;20411;-85
2022/08/23 03:42:50;;;;;;;3.20;2.57;;;26.00;47.10;;;;;;6149243;23;20384;-85
2022/08/23 03:45:25;;;;;;;3.93;2.73;;;26.00;47.10;;;;;;6175653;23;20410;-85
2022/08/23 03:47:56;;;;;;;3.80;2.70;;;26.00;47.10;;;;;;6150052;23;20376;-85
2022/08/23 03:50:31;;;;;;;2.60;2.40;;;26.00;47.10;;;;;;6149556;23;20388;-86
2022/08/23 03:53:09;;;;;;;3.07;2.77;;;26.00;47.10;;;;;;6149961;23;20380;-85
2022/08/23 03:55:40;;;;;;;3.37;3.07;;;26.00;47.10;;;;;;6151697;23;20380;-85
2022/08/23 03:58:35;;;;;;;3.50;2.67;;;26.00;47.10;;;;;;6147796;23;20403;-85
2022/08/23 04:04:28;;;;;;;3.53;2.87;;;26.00;47.10;;;;;;6173053;23;20470;-84
2022/08/23 04:07:16;;;;;;;3.30;2.70;;;25.90;47.00;;;;;;6146800;23;20392;-85
2022/08/23 04:09:56;;;;;;;2.53;2.17;;;25.90;47.10;;;;;;6146671;23;20406;-85
2022/08/23 04:12:26;;;;;;;2.37;2.20;;;26.00;47.20;;;;;;6171044;23;20431;-85
2022/08/23 04:14:57;;;;;;;3.50;2.63;;;25.90;47.10;;;;;;6146932;23;20416;-85
2022/08/23 04:17:54;;;;;;;3.77;3.47;;;25.90;47.00;;;;;;6146950;23;20403;-85
2022/08/23 04:20:25;;;;;;;2.83;2.63;;;25.90;47.10;;;;;;6169781;23;20449;-85
2022/08/23 04:22:55;;;;;;;3.77;3.23;;;25.90;47.00;;;;;;6174392;23;20435;-85
2022/08/23 04:25:32;;;;;;;3.13;2.90;;;25.90;47.10;;;;;;6149224;23;20419;-85
2022/08/23 04:28:04;;;;;;;2.87;2.60;;;25.90;47.00;;;;;;6148586;23;20380;-85
2022/08/23 04:34:06;;;;;;;;;;;;;;;;;;;;;
2022/08/23 04:36:48;;;;;;;2.77;2.57;;;25.90;47.00;;;;;;6175592;23;20364;-85
2022/08/23 04:42:51;;;;;;;2.57;2.37;;;25.90;47.10;;;;;;6175298;23;20625;-84
2022/08/23 04:45:42;;;;;;;4.23;2.70;;;25.90;47.10;;;;;;6129644;23;20420;-85
2022/08/23 04:48:16;;;;;;;3.40;3.10;;;25.90;47.10;;;;;;6173280;23;20383;-85
2022/08/23 04:50:49;;;;;;;2.80;2.60;;;25.90;47.10;;;;;;6174827;23;20356;-85
2022/08/23 04:53:37;;;;;;;2.87;2.60;;;25.90;47.10;;;;;;6148826;23;20385;-85
2022/08/23 04:56:36;;;;;;;2.80;2.60;;;25.90;47.10;;;;;;6147046;23;20377;-85
2022/08/23 04:59:19;;;;;;;3.33;2.57;;;25.90;47.10;;;;;;6152491;23;20391;-85
2022/08/23 05:01:56;;;;;;;4.47;2.93;;;25.90;47.10;;;;;;6148503;23;20427;-84
2022/08/23 05:04:41;;;;;;;5.20;2.73;;;25.90;47.10;;;;;;6148211;23;20735;-84
2022/08/23 05:07:32;;;;;;;3.03;2.63;;;25.90;47.10;;;;;;6148039;23;20417;-84
2022/08/23 05:10:27;;;;;;;3.23;3.00;;;25.90;47.00;;;;;;6173699;23;20708;-85
2022/08/23 05:13:05;;;;;;;3.50;3.00;;;25.80;47.00;;;;;;6148249;23;20380;-85
2022/08/23 05:15:43;;;;;;;3.10;2.80;;;25.80;47.00;;;;;;6121391;23;20380;-85
2022/08/23 05:18:21;;;;;;;3.83;2.97;;;25.80;47.60;;;;;;6147857;23;20700;-85
2022/08/23 05:20:56;;;;;;;3.00;2.70;;;25.80;47.10;;;;;;6146500;23;20390;-85
2022/08/23 05:23:35;;;;;;;4.47;3.50;;;25.90;47.10;;;;;;6146085;23;20408;-85
2022/08/23 05:26:13;;;;;;;4.17;2.73;;;25.90;47.10;;;;;;6146272;23;20465;-85
2022/08/23 05:31:58;;;;;;;2.80;2.60;;;25.80;47.00;;;;;;6163710;23;20371;-84
2022/08/23 05:35:21;;;;;;;3.00;2.70;;;25.80;47.10;;;;;;6174477;23;20364;-84
2022/08/23 05:38:04;;;;;;;;;;;;;;;;;;;;;
2022/08/23 05:41:01;;;;;;;3.30;2.80;;;25.80;47.10;;;;;;6176925;23;20348;-85
2022/08/23 05:44:01;;;;;;;3.30;2.80;;;25.80;47.10;;;;;;6152121;23;20715;-85
2022/08/23 05:47:06;;;;;;;4.07;3.03;;;25.80;47.10;;;;;;6150450;23;20368;-85
2022/08/23 05:57:05;;;;;;;3.33;3.03;;;25.80;47.10;;;;;;6087350;23;20378;-85
2022/08/23 06:00:16;;;;;;;;;;;;;;;;;;;;;
2022/08/23 06:03:13;;;;;;;3.83;3.00;;;25.80;47.10;;;;;;6085358;23;20383;-85
2022/08/23 06:06:28;;;;;;;3.10;2.40;;;25.80;47.10;;;;;;6082446;23;20480;-85
2022/08/23 06:12:02;;;;;;;2.93;2.70;;;25.80;47.20;;;;;;6056584;23;20468;-85
2022/08/23 06:14:55;;;;;;;3.20;2.90;;;25.80;47.20;;;;;;6055667;23;20439;-85
2022/08/23 06:21:08;;;;;;;3.83;2.77;;;25.80;47.10;;;;;;6056808;23;20358;-84
2022/08/23 06:23:51;;;;;;;;;;;;;;;;;;;;;
2022/08/23 06:26:57;;;;;;;3.47;2.70;;;25.80;47.20;;;;;;6056375;23;20387;-84
2022/08/23 06:29:37;;;;;;;3.10;2.80;;;25.80;47.20;;;;;;6028681;23;20390;-85
2022/08/23 06:32:33;;;;;;;3.30;3.00;;;25.80;47.20;;;;;;6056262;23;20379;-85
2022/08/23 06:49:59;;;;;;;3.07;2.77;;;25.80;47.20;;;;;;6055058;23;20363;-85
2022/08/23 06:52:35;;;;;;;4.20;3.07;;;25.80;47.20;;;;;;6015663;23;20421;-85
2022/08/23 06:55:07;;;;;;;4.53;2.90;;;25.80;47.20;;;;;;6031054;23;20395;-85
2022/08/23 06:57:38;;;;;;;2.90;2.60;;;25.80;47.20;;;;;;6055681;23;20387;-85
2022/08/23 07:00:19;;;;;;;3.17;2.80;;;25.80;47.20;;;;;;6033396;23;20478;-85
2022/08/23 07:02:54;;;;;;;4.20;3.00;;;25.80;47.20;;;;;;6057256;23;20391;-85
2022/08/23 07:05:37;;;;;;;3.00;2.80;;;25.80;47.20;;;;;;6034884;23;20430;-85
2022/08/23 07:08:16;;;;;;;3.27;2.97;;;25.80;47.20;;;;;;6053553;23;20379;-85
2022/08/23 07:14:52;;;;;;;2.70;2.50;;;25.80;47.10;;;;;;5972597;24;20374;-84
2022/08/23 07:17:47;;;;;;;3.17;2.87;;;25.80;47.20;;;;;;5972149;24;20399;-85
2022/08/23 07:20:54;;;;;;;3.70;2.53;;;25.80;47.20;;;;;;5988968;23;20390;-84
2022/08/23 07:23:33;;;;;;;4.30;3.90;;;25.80;47.20;;;;;;6083859;23;20386;-85
2022/08/23 07:29:53;;;;;;;;;;;;;;;;;;;;;
2022/08/23 07:36:35;;;;;;;2.90;2.70;;;25.80;47.20;;;;;;6086151;23;20366;-86
2022/08/23 07:39:35;;;;;;;2.83;2.63;;;25.80;47.20;;;;;;6056802;23;20442;-85
2022/08/23 07:42:20;;;;;;;2.73;2.53;;;25.80;47.20;;;;;;6085296;23;20397;-85
2022/08/23 07:45:04;;;;;;;2.70;2.50;;;25.80;47.20;;;;;;6075874;23;20525;-85
2022/08/23 07:48:14;;;;;;;4.03;2.70;;;25.80;47.20;;;;;;6055563;23;20394;-85
2022/08/23 08:01:09;;;;;;;2.80;2.43;;;25.80;47.20;;;;;;6175001;23;20347;-84
2022/08/23 08:04:15;;;;;;;2.33;2.13;;;25.80;47.20;;;;;;6149383;23;20465;-84
2022/08/23 08:21:28;;;;;;;2.30;2.10;;;25.80;47.20;;;;;;6083052;23;20466;-85
2022/08/23 08:33:49;;;;;;;2.30;2.10;;;25.80;47.20;;;;;;5991688;23;20408;-85
2022/08/23 08:36:48;;;;;;;3.00;2.70;;;25.80;47.20;;;;;;5977646;24;20405;-85
2022/08/23 08:42:46;;;;;;;1.80;1.70;;;25.80;47.10;;;;;;6011711;24;20860;-85
2022/08/23 08:55:52;;;;;;;1.87;1.77;;;25.80;47.00;;;;;;6057576;23;20375;-85
2022/08/23 08:59:05;;;;;;;;;;;;;;;;;;;;;
2022/08/23 09:01:54;;;;;;;;;;;;;;;;;;;;;
2022/08/23 09:15:10;;;;;;;2.27;2.07;;;25.90;47.00;;;;;;6056750;23;20373;-84
2022/08/23 09:28:42;;;;;;;;;;;;;;;;;;;;;
2022/08/23 09:31:51;;;;;;;2.33;2.13;;;25.90;47.00;;;;;;5916403;24;20397;-85
2022/08/23 09:34:47;;;;;;;1.60;1.50;;;25.90;47.00;;;;;;5893573;24;20807;-85
2022/08/23 09:38:20;;;;;;;2.40;2.10;;;25.90;46.90;;;;;;5892519;24;20537;-85
2022/08/23 09:41:08;;;;;;;1.83;1.67;;;25.90;46.80;;;;;;5893408;24;20391;-85
2022/08/23 09:47:25;;;;;;;1.80;1.60;;;25.90;46.80;;;;;;5943906;24;20363;-86
2022/08/23 09:50:34;;;;;;;;;;;;;;;;;;;;;
2022/08/23 09:53:48;;;;;;;;;;;;;;;;;;;;;
2022/08/23 10:03:41;;;;;;;2.23;1.80;;;25.90;46.80;;;;;;6054959;23;20367;-85
2022/08/23 10:06:50;;;;;;;;;;;;;;;;;;;;;
2022/08/23 10:12:46;;;;;;;1.90;1.70;;;25.90;46.80;;;;;;6043425;23;20399;-85
2022/08/23 10:15:32;;;;;;;1.60;1.50;;;25.90;46.80;;;;;;5940496;24;20383;-84
2022/08/23 10:22:06;;;;;;;;;;;;;;;;;;;;;
2022/08/23 10:25:04;;;;;;;1.40;1.30;;;26.00;46.80;;;;;;5889755;24;20995;-85
2022/08/23 10:31:43;;;;;;;;;;;;;;;;;;;;;
2022/08/23 10:38:20;;;;;;;2.47;1.60;;;26.00;46.80;;;;;;5916377;24;20392;-85
2022/08/23 10:42:02;;;;;;;1.83;1.60;;;26.00;46.70;;;;;;5895423;24;20472;-85
2022/08/23 10:56:32;;;;;;;;;;;;;;;;;;;;;
2022/08/23 11:05:54;;;;;;;2.00;1.47;;;26.00;46.80;;;;;;5810070;24;20462;-85
2022/08/23 11:12:34;;;;;;;;;;;;;;;;;;;;;
2022/08/23 11:32:57;;;;;;;4.17;1.50;;;26.00;46.70;;;;;;5864460;24;20388;-85
2022/08/23 11:42:39;;;;;;;1.73;1.20;;;26.00;46.60;;;;;;5868830;24;20365;-86
2022/08/23 11:45:52;;;;;;;2.10;1.47;;;26.00;46.60;;;;;;5843158;24;20434;-85
2022/08/23 11:49:00;;;;;;;1.50;1.20;;;26.10;46.70;;;;;;5843246;24;20444;-85
2022/08/23 11:52:09;;;;;;;1.30;1.20;;;26.10;46.70;;;;;;5827857;24;20374;-85
2022/08/23 11:58:59;;;;;;;1.43;1.33;;;26.10;46.60;;;;;;5810991;24;20396;-85
2022/08/23 12:09:15;;;;;;;1.30;1.20;;;26.10;46.60;;;;;;5945202;24;20403;-85
2022/08/23 12:15:56;;;;;;;1.60;1.30;;;26.10;46.60;;;;;;5945465;24;20694;-85
2022/08/23 12:18:42;;;;;;;1.83;1.50;;;26.10;46.60;;;;;;5919007;24;20380;-83
2022/08/23 12:21:50;;;;;;;1.10;1.00;;;26.10;46.60;;;;;;5938862;24;20383;-82
2022/08/23 12:25:21;;;;;;;1.50;1.20;;;26.10;46.50;;;;;;5942677;24;20427;-85
2022/08/23 12:58:51;;;;;;;;;;;;;;;;;;;;;
2022/08/23 13:08:53;;;;;;;1.40;1.10;;;26.10;46.30;;;;;;5865889;24;20412;-84
2022/08/23 13:15:11;;;;;;;1.50;1.33;;;26.10;46.20;;;;;;5863842;24;20399;-84
2022/08/23 13:24:41;;;;;;;1.70;1.07;;;26.10;46.20;;;;;;5809843;24;20443;-84
2022/08/23 13:27:55;;;;;;;1.30;1.20;;;26.10;46.20;;;;;;5787739;24;20731;-84
2022/08/23 13:30:57;;;;;;;1.77;1.67;;;26.10;46.20;;;;;;5808930;24;20388;-84
2022/08/23 13:34:04;;;;;;;1.90;1.37;;;26.10;46.20;;;;;;5809524;24;20471;-85
2022/08/23 13:41:02;;;;;;;;;;;;;;;;;;;;;
2022/08/23 14:07:28;;;;;;;1.53;1.40;;;26.10;46.10;;;;;;6011305;23;20470;-84
2022/08/23 14:10:28;;;;;;;1.33;1.23;;;26.10;46.10;;;;;;6004300;23;20384;-84
2022/08/23 14:16:54;;;;;;;1.30;1.20;;;26.10;46.10;;;;;;5928912;24;20410;-84
2022/08/23 14:30:02;;;;;;;1.60;1.50;;;26.10;46.00;;;;;;5916894;24;20381;-85
2022/08/23 14:36:23;;;;;;;1.47;1.27;;;26.20;46.20;;;;;;5944461;24;20379;-85
2022/08/23 14:45:30;;;;;;;1.40;1.30;;;26.20;46.10;;;;;;5971018;24;20478;-85
2022/08/23 14:48:29;;;;;;;1.30;1.20;;;26.20;46.00;;;;;;5913711;24;20396;-86
2022/08/23 14:51:33;;;;;;;1.33;1.23;;;26.20;46.10;;;;;;5919857;24;20385;-85
2022/08/23 14:54:23;;;;;;;1.60;1.40;;;26.20;46.00;;;;;;5991914;24;20373;-86
2022/08/23 14:57:11;;;;;;;2.33;1.33;;;26.20;46.00;;;;;;5998512;24;20418;-86
2022/08/23 15:00:39;;;;;;;;;;;;;;;;;;;;;
2022/08/23 15:03:42;;;;;;;1.33;1.10;;;26.20;46.00;;;;;;5962934;24;20377;-85
2022/08/23 15:06:32;;;;;;;1.20;1.10;;;26.20;46.00;;;;;;5995257;24;20392;-85
2022/08/23 15:13:29;;;;;;;;;;;;;;;;;;;;;
2022/08/23 15:17:04;;;;;;;;;;;;;;;;;;;;;
2022/08/23 15:20:11;;;;;;;1.50;1.40;;;26.20;46.00;;;;;;5876691;24;20413;-84
2022/08/23 15:30:02;;;;;;;1.70;1.60;;;26.20;46.00;;;;;;6086603;23;20438;-84
2022/08/23 15:32:39;;;;;;;1.30;1.20;;;26.20;46.00;;;;;;6077645;23;20411;-85
2022/08/23 15:35:30;;;;;;;3.57;1.70;;;26.20;46.00;;;;;;6062155;23;20382;-85
2022/08/23 15:48:51;;;;;;;1.63;1.40;;;26.20;45.90;;;;;;6001969;24;20346;-84
2022/08/23 15:51:47;;;;;;;1.20;1.10;;;26.20;45.90;;;;;;6002313;24;20373;-84
2022/08/23 16:01:18;;;;;;;;;;;;;;;;;;;;;
2022/08/23 16:08:54;;;;;;;;;;;;;;;;;;;;;
2022/08/23 16:35:58;;;;;;;1.37;1.20;;;26.10;45.90;;;;;;6058496;23;20407;-85
2022/08/23 16:39:27;;;;;;;;;;;;;;;;;;;;;
2022/08/23 16:48:55;;;;;;;1.33;1.23;;;26.10;45.90;;;;;;5917651;23;21062;-84
2022/08/23 16:51:59;;;;;;;;;;;;;;;;;;;;;
2022/08/23 17:02:06;;;;;;;1.53;1.40;;;26.20;45.90;;;;;;5917623;24;20340;-84
2022/08/23 17:05:05;;;;;;;1.80;1.53;;;26.20;45.90;;;;;;5916357;24;20468;-85
2022/08/23 17:11:28;;;;;;;;;;;;;;;;;;;;;
2022/08/23 17:13:58;;;;;;;1.47;1.20;;;26.20;45.90;;;;;;5971923;24;20381;-85
2022/08/23 17:16:34;;;;;;;1.80;1.43;;;26.20;45.90;;;;;;6082961;23;20417;-85
2022/08/23 17:19:10;;;;;;;4.80;1.43;;;26.20;45.90;;;;;;6062039;23;20801;-85
2022/08/23 17:25:32;;;;;;;1.50;1.37;;;26.20;45.80;;;;;;6027381;23;20973;-85
2022/08/23 17:28:38;;;;;;;1.60;1.30;;;26.20;45.70;;;;;;6000878;23;20381;-85
2022/08/23 17:31:15;;;;;;;1.63;1.53;;;26.20;45.80;;;;;;6019977;23;20403;-85
2022/08/23 17:33:52;;;;;;;1.63;1.53;;;26.20;45.80;;;;;;6085406;23;20733;-85
2022/08/23 17:36:54;;;;;;;1.23;1.13;;;26.20;45.80;;;;;;6059068;23;20434;-85
2022/08/23 17:40:07;;;;;;;1.70;1.50;;;26.20;45.80;;;;;;6085456;23;20448;-85
2022/08/23 17:43:50;;;;;;;1.67;1.50;;;26.20;45.70;;;;;;6084566;23;20406;-85
2022/08/23 17:53:21;;;;;;;1.50;1.40;;;26.20;45.80;;;;;;6085438;23;20870;-84
2022/08/23 17:56:17;;;;;;;1.67;1.37;;;26.10;45.80;;;;;;6085046;23;20393;-84
2022/08/23 17:59:10;;;;;;;1.37;1.27;;;26.20;45.80;;;;;;6032694;23;20382;-84
2022/08/23 18:08:29;;;;;;;1.43;1.30;;;26.20;45.80;;;;;;6056018;23;20420;-84
2022/08/23 18:11:32;;;;;;;;;;;;;;;;;;;;;
2022/08/23 18:14:15;;;;;;;1.57;1.30;;;26.20;45.80;;;;;;5998586;24;20416;-84
2022/08/23 18:20:19;;;;;;;1.70;1.50;;;26.20;45.80;;;;;;5914778;24;20835;-84
2022/08/23 18:23:14;;;;;;;1.60;1.50;;;26.20;45.90;;;;;;5986260;24;20459;-83
2022/08/23 18:25:48;;;;;;;1.40;1.30;;;26.20;45.90;;;;;;5999270;24;20428;-84
2022/08/23 18:28:45;;;;;;;1.50;1.37;;;26.20;45.90;;;;;;5997735;24;20410;-84
2022/08/23 18:31:31;;;;;;;;;;;;;;;;;;;;;
2022/08/23 18:34:32;;;;;;;1.50;1.27;;;26.20;45.90;;;;;;6000948;24;20385;-85
2022/08/23 18:37:21;;;;;;;;;;;;;;;;;;;;;
2022/08/23 18:40:08;;;;;;;1.30;1.20;;;26.20;45.90;;;;;;6000057;24;20388;-84
2022/08/23 18:43:02;;;;;;;1.77;1.40;;;26.20;45.90;;;;;;5976863;24;20405;-84
2022/08/23 18:45:50;;;;;;;;;;;;;;;;;;;;;
2022/08/23 18:59:07;;;;;;;1.13;1.03;;;26.20;45.90;;;;;;6002798;24;20452;-84
2022/08/23 19:02:15;;;;;;;;;;;;;;;;;;;;;
2022/08/23 19:05:13;;;;;;;;;;;;;;;;;;;;;
2022/08/23 19:08:18;;;;;;;1.83;1.40;;;26.20;46.00;;;;;;6000807;24;20385;-85
2022/08/23 19:11:18;;;;;;;1.33;1.23;;;26.20;46.00;;;;;;5975542;24;20402;-84
2022/08/23 19:23:39;;;;;;;2.70;1.60;;;26.20;46.10;;;;;;6026925;23;20478;-82
2022/08/23 19:26:30;;;;;;;2.00;1.20;;;26.10;46.10;;;;;;6023886;23;20435;-83
2022/08/23 19:32:18;;;;;;;;;;;;;;;;;;;;;
2022/08/23 19:34:56;;;;;;;1.70;1.43;;;26.10;46.10;;;;;;6081474;23;20414;-82
2022/08/23 19:47:45;;;;;;;2.03;1.83;;;26.20;46.20;;;;;;6115696;23;20403;-82
2022/08/23 20:00:26;;;;;;;;;;;;;;;;;;;;;
2022/08/23 20:03:17;;;;;;;1.40;1.30;;;26.10;46.20;;;;;;5995404;24;20843;-81
2022/08/23 20:19:58;;;;;;;1.47;1.37;;;26.10;46.30;;;;;;5994218;24;20800;-82
2022/08/23 20:33:05;;;;;;;1.30;1.20;;;26.10;46.30;;;;;;5959169;23;20383;-82
2022/08/23 20:35:40;;;;;;;1.93;1.60;;;26.10;46.30;;;;;;6055766;23;20498;-82
2022/08/23 20:38:30;;;;;;;1.40;1.30;;;26.10;46.40;;;;;;6053674;23;20382;-82
2022/08/23 20:41:21;;;;;;;1.30;1.20;;;26.10;46.40;;;;;;6039579;23;20383;-82
2022/08/23 20:43:58;;;;;;;1.40;1.30;;;26.10;46.30;;;;;;6056418;23;20393;-82
2022/08/23 20:54:16;;;;;;;1.97;1.30;;;26.10;46.30;;;;;;5998170;23;20396;-83
2022/08/23 20:57:28;;;;;;;2.23;1.30;;;26.10;46.40;;;;;;5864046;24;20391;-83
2022/08/23 21:00:39;;;;;;;;;;;;;;;;;;;;;
2022/08/23 21:03:28;;;;;;;2.20;1.47;;;26.10;46.40;;;;;;5887091;24;20728;-82
2022/08/23 21:06:32;;;;;;;1.30;1.03;;;26.10;46.40;;;;;;5897940;24;20918;-82
2022/08/23 21:09:09;;;;;;;1.20;1.10;;;26.10;46.50;;;;;;5936977;24;20391;-83
2022/08/23 21:22:16;;;;;;;1.53;1.20;;;26.10;46.50;;;;;;5945064;23;20745;-84
2022/08/23 21:25:20;;;;;;;1.60;1.50;;;26.10;46.50;;;;;;5944134;24;20431;-84
2022/08/23 21:27:54;;;;;;;1.50;1.30;;;26.10;46.50;;;;;;6035020;23;20622;-84
2022/08/23 21:31:13;;;;;;;;;;;;;;;;;;;;;
2022/08/23 21:34:03;;;;;;;1.77;1.40;;;26.10;46.50;;;;;;6000040;24;20362;-84
2022/08/23 21:37:01;;;;;;;;;;;;;;;;;;;;;
2022/08/23 21:39:46;;;;;;;2.23;1.50;;;26.10;46.60;;;;;;6049265;23;20559;-83
2022/08/23 21:42:39;;;;;;;1.50;1.40;;;26.10;46.60;;;;;;6029828;23;20433;-83
2022/08/23 21:45:29;;;;;;;1.63;1.53;;;26.10;46.60;;;;;;6030287;23;20419;-83
2022/08/23 21:48:05;;;;;;;1.97;1.37;;;26.10;46.50;;;;;;6029191;23;20384;-82
2022/08/23 21:50:52;;;;;;;1.60;1.43;;;26.10;46.60;;;;;;6029654;23;20388;-83
2022/08/23 21:53:21;;;;;;;3.47;1.47;;;26.10;46.60;;;;;;6029431;23;20448;-84
2022/08/23 21:55:58;;;;;;;1.83;1.73;;;26.10;46.60;;;;;;6125755;23;20799;-84
2022/08/23 21:58:31;;;;;;;1.80;1.70;;;26.10;46.60;;;;;;6117732;23;20424;-84
2022/08/23 22:01:05;;;;;;;1.60;1.50;;;26.20;46.60;;;;;;6141255;23;20381;-83
2022/08/23 22:03:49;;;;;;;1.87;1.67;;;26.20;46.60;;;;;;6140711;23;20440;-83
2022/08/23 22:06:27;;;;;;;;;;;;;;;;;;;;;
2022/08/23 22:09:20;;;;;;;1.93;1.60;;;26.20;46.60;;;;;;6142818;23;20349;-83
2022/08/23 22:11:56;;;;;;;1.80;1.70;;;26.20;46.60;;;;;;6141319;23;20404;-83
2022/08/23 22:14:34;;;;;;;2.60;1.60;;;26.20;46.70;;;;;;6140325;23;20419;-82
2022/08/23 22:17:18;;;;;;;1.83;1.70;;;26.10;46.60;;;;;;6139754;23;20682;-83
2022/08/23 22:19:50;;;;;;;1.70;1.60;;;26.20;46.60;;;;;;6140606;23;20439;-84
2022/08/23 22:22:27;;;;;;;1.60;1.40;;;26.20;46.60;;;;;;6140979;23;20701;-83
2022/08/23 22:24:58;;;;;;;1.73;1.60;;;26.20;46.60;;;;;;6141053;23;20428;-83
2022/08/23 22:27:28;;;;;;;1.60;1.50;;;26.20;46.60;;;;;;6140729;23;20416;-84
2022/08/23 22:30:16;;;;;;;2.20;2.00;;;26.20;46.70;;;;;;6142832;23;20377;-83
2022/08/23 22:32:48;;;;;;;1.83;1.73;;;26.20;46.60;;;;;;6143574;23;20401;-84
2022/08/23 22:35:34;;;;;;;1.73;1.60;;;26.20;46.70;;;;;;6142926;23;20387;-83
2022/08/23 22:38:04;;;;;;;2.70;1.73;;;26.20;46.80;;;;;;6117103;23;20408;-83
2022/08/23 22:40:53;;;;;;;1.60;1.50;;;26.20;46.70;;;;;;6143671;23;20388;-83
2022/08/23 22:43:47;;;;;;;;;;;;;;;;;;;;;
2022/08/23 22:46:49;;;;;;;1.60;1.50;;;26.20;46.70;;;;;;6144376;23;20440;-84
2022/08/23 22:49:39;;;;;;;;;;;;;;;;;;;;;
2022/08/23 22:52:14;;;;;;;2.17;1.93;;;26.10;46.70;;;;;;6112650;23;20811;-84
2022/08/23 22:54:51;;;;;;;1.67;1.57;;;26.10;46.70;;;;;;6087894;23;20404;-84
2022/08/23 22:57:27;;;;;;;2.50;1.67;;;26.10;46.70;;;;;;6110518;23;20377;-84
2022/08/23 23:00:06;;;;;;;1.90;1.70;;;26.20;46.90;;;;;;6111822;23;20510;-83
2022/08/23 23:02:38;;;;;;;1.60;1.50;;;26.10;46.80;;;;;;6109531;23;20392;-84
2022/08/23 23:05:21;;;;;;;;;;;;;;;;;;;;;
2022/08/23 23:10:40;;;;;;;3.30;2.03;;;26.10;46.80;;;;;;6112797;23;20379;-84
2022/08/23 23:13:28;;;;;;;1.83;1.73;;;26.10;46.80;;;;;;6087820;23;20394;-84
2022/08/23 23:16:12;;;;;;;1.80;1.70;;;26.20;46.90;;;;;;6088342;23;20385;-84
2022/08/23 23:21:49;;;;;;;1.70;1.60;;;26.10;46.90;;;;;;6112597;23;20446;-84
2022/08/23 23:24:31;;;;;;;2.70;1.60;;;26.10;46.90;;;;;;6087982;23;20394;-83
2022/08/23 23:27:06;;;;;;;2.30;1.53;;;26.20;47.00;;;;;;6135901;23;20415;-84
2022/08/23 23:29:47;;;;;;;1.53;1.40;;;26.10;46.90;;;;;;6142495;23;20412;-85
2022/08/23 23:32:30;;;;;;;1.97;1.70;;;26.10;47.00;;;;;;6146839;23;20388;-85
2022/08/23 23:35:10;;;;;;;4.13;1.50;;;26.10;47.00;;;;;;6145919;23;20369;-85
2022/08/23 23:37:44;;;;;;;1.73;1.40;;;26.10;46.90;;;;;;6145853;23;20757;-85
2022/08/23 23:40:22;;;;;;;2.50;2.10;;;26.10;47.50;;;;;;6144598;23;20401;-85
2022/08/23 23:43:03;;;;;;;3.47;2.10;;;26.10;47.00;;;;;;6145115;23;20383;-85
2022/08/23 23:45:32;;;;;;;2.20;2.00;;;26.10;47.00;;;;;;6145679;23;20416;-84
2022/08/23 23:48:06;;;;;;;1.80;1.70;;;26.10;47.00;;;;;;6119912;23;20381;-85
2022/08/23 23:50:44;;;;;;;1.83;1.43;;;26.10;47.00;;;;;;6137140;23;20376;-85
2022/08/23 23:53:19;;;;;;;1.73;1.63;;;26.10;47.00;;;;;;6139931;23;20505;-84
2022/08/23 23:55:58;;;;;;;3.20;1.87;;;26.10;47.00;;;;;;6142670;23;20412;-85
2022/08/23 23:58:38;;;;;;;2.00;1.77;;;26.10;47.00;;;;;;6144103;23;20381;-85
